sensor_id;sensor_type;location;lat;lon;timestamp;temperature;humidity
23507;DHT22;11930;53.076;18.250;2023-12-20T00:00:23;6.50;99.90
23507;DHT22;11930;53.076;18.250;2023-12-20T00:03:10;6.50;99.90
23507;DHT22;11930;53.076;18.250;2023-12-20T00:05:36;6.50;99.90
23507;DHT22;11930;53.076;18.250;2023-12-20T00:08:04;6.50;99.90
23507;DHT22;11930;53.076;18.250;2023-12-20T00:10:30;6.50;99.90
23507;DHT22;11930;53.076;18.250;2023-12-20T00:12:57;6.50;99.90
23507;DHT22;11930;53.076;18.250;2023-12-20T00:15:23;6.50;99.90
23507;DHT22;11930;53.076;18.250;2023-12-20T00:17:49;6.50;99.90
23507;DHT22;11930;53.076;18.250;2023-12-20T00:20:15;6.50;99.90
23507;DHT22;11930;53.076;18.250;2023-12-20T00:22:41;6.50;99.90
23507;DHT22;11930;53.076;18.250;2023-12-20T00:25:08;6.50;99.90
23507;DHT22;11930;53.076;18.250;2023-12-20T00:27:34;6.50;99.90
23507;DHT22;11930;53.076;18.250;2023-12-20T00:30:00;6.50;99.90
23507;DHT22;11930;53.076;18.250;2023-12-20T00:32:26;6.50;99.90
23507;DHT22;11930;53.076;18.250;2023-12-20T00:34:52;6.50;99.90
23507;DHT22;11930;53.076;18.250;2023-12-20T00:37:19;6.50;99.90
23507;DHT22;11930;53.076;18.250;2023-12-20T00:39:45;6.50;99.90
23507;DHT22;11930;53.076;18.250;2023-12-20T00:42:11;6.50;99.90
23507;DHT22;11930;53.076;18.250;2023-12-20T00:44:37;6.50;99.90
23507;DHT22;11930;53.076;18.250;2023-12-20T00:47:04;6.60;99.90
23507;DHT22;11930;53.076;18.250;2023-12-20T00:49:30;6.60;99.90
23507;DHT22;11930;53.076;18.250;2023-12-20T00:51:56;6.60;99.90
23507;DHT22;11930;53.076;18.250;2023-12-20T00:54:22;6.60;99.90
23507;DHT22;11930;53.076;18.250;2023-12-20T00:56:48;6.60;99.90
23507;DHT22;11930;53.076;18.250;2023-12-20T00:59:16;6.60;99.90
23507;DHT22;11930;53.076;18.250;2023-12-20T01:01:42;6.50;99.90
23507;DHT22;11930;53.076;18.250;2023-12-20T01:04:08;6.60;99.90
23507;DHT22;11930;53.076;18.250;2023-12-20T01:06:34;6.60;99.90
23507;DHT22;11930;53.076;18.250;2023-12-20T01:09:00;6.60;99.90
23507;DHT22;11930;53.076;18.250;2023-12-20T01:11:28;6.60;99.90
23507;DHT22;11930;53.076;18.250;2023-12-20T01:13:54;6.60;99.90
23507;DHT22;11930;53.076;18.250;2023-12-20T01:16:20;6.60;99.90
23507;DHT22;11930;53.076;18.250;2023-12-20T01:18:46;6.60;99.90
23507;DHT22;11930;53.076;18.250;2023-12-20T01:21:13;6.60;99.90
23507;DHT22;11930;53.076;18.250;2023-12-20T01:23:39;6.60;99.90
23507;DHT22;11930;53.076;18.250;2023-12-20T01:26:05;6.60;99.90
23507;DHT22;11930;53.076;18.250;2023-12-20T01:28:31;6.60;99.90
23507;DHT22;11930;53.076;18.250;2023-12-20T01:30:58;6.60;99.90
23507;DHT22;11930;53.076;18.250;2023-12-20T01:33:24;6.60;99.90
23507;DHT22;11930;53.076;18.250;2023-12-20T01:35:50;6.60;99.90
23507;DHT22;11930;53.076;18.250;2023-12-20T01:38:16;6.60;99.90
23507;DHT22;11930;53.076;18.250;2023-12-20T01:40:44;6.60;99.90
23507;DHT22;11930;53.076;18.250;2023-12-20T01:43:10;6.60;99.90
23507;DHT22;11930;53.076;18.250;2023-12-20T01:45:38;6.60;99.90
23507;DHT22;11930;53.076;18.250;2023-12-20T01:48:05;6.60;99.90
23507;DHT22;11930;53.076;18.250;2023-12-20T01:50:32;6.60;99.90
23507;DHT22;11930;53.076;18.250;2023-12-20T01:53:01;6.70;99.90
23507;DHT22;11930;53.076;18.250;2023-12-20T01:55:30;6.60;99.90
23507;DHT22;11930;53.076;18.250;2023-12-20T01:57:58;6.60;99.90
23507;DHT22;11930;53.076;18.250;2023-12-20T02:00:26;6.60;99.90
23507;DHT22;11930;53.076;18.250;2023-12-20T02:02:54;6.60;99.90
23507;DHT22;11930;53.076;18.250;2023-12-20T02:05:24;6.70;99.90
23507;DHT22;11930;53.076;18.250;2023-12-20T02:07:51;6.70;99.90
23507;DHT22;11930;53.076;18.250;2023-12-20T02:10:17;6.70;99.90
23507;DHT22;11930;53.076;18.250;2023-12-20T02:12:44;6.70;99.90
23507;DHT22;11930;53.076;18.250;2023-12-20T02:15:10;6.60;99.90
23507;DHT22;11930;53.076;18.250;2023-12-20T02:17:36;6.70;99.90
23507;DHT22;11930;53.076;18.250;2023-12-20T02:20:04;6.70;99.90
23507;DHT22;11930;53.076;18.250;2023-12-20T02:22:31;6.60;99.90
23507;DHT22;11930;53.076;18.250;2023-12-20T02:24:58;6.70;99.90
23507;DHT22;11930;53.076;18.250;2023-12-20T02:27:24;6.70;99.90
23507;DHT22;11930;53.076;18.250;2023-12-20T02:29:50;6.70;99.90
23507;DHT22;11930;53.076;18.250;2023-12-20T02:32:17;6.70;99.90
23507;DHT22;11930;53.076;18.250;2023-12-20T02:34:44;6.70;99.90
23507;DHT22;11930;53.076;18.250;2023-12-20T02:37:10;6.70;99.90
23507;DHT22;11930;53.076;18.250;2023-12-20T02:39:37;6.70;99.90
23507;DHT22;11930;53.076;18.250;2023-12-20T02:42:03;6.70;99.90
23507;DHT22;11930;53.076;18.250;2023-12-20T02:44:29;6.70;99.90
23507;DHT22;11930;53.076;18.250;2023-12-20T02:46:55;6.70;99.90
23507;DHT22;11930;53.076;18.250;2023-12-20T02:49:22;6.70;99.90
23507;DHT22;11930;53.076;18.250;2023-12-20T02:51:48;6.70;99.90
23507;DHT22;11930;53.076;18.250;2023-12-20T02:54:14;6.70;99.90
23507;DHT22;11930;53.076;18.250;2023-12-20T02:56:40;6.70;99.90
23507;DHT22;11930;53.076;18.250;2023-12-20T02:59:06;6.60;99.90
23507;DHT22;11930;53.076;18.250;2023-12-20T03:01:34;6.70;99.90
23507;DHT22;11930;53.076;18.250;2023-12-20T03:04:01;6.70;99.90
23507;DHT22;11930;53.076;18.250;2023-12-20T03:06:27;6.70;99.90
23507;DHT22;11930;53.076;18.250;2023-12-20T03:08:53;6.70;99.90
23507;DHT22;11930;53.076;18.250;2023-12-20T03:11:19;6.70;99.90
23507;DHT22;11930;53.076;18.250;2023-12-20T03:13:46;6.70;99.90
23507;DHT22;11930;53.076;18.250;2023-12-20T03:16:13;6.70;99.90
23507;DHT22;11930;53.076;18.250;2023-12-20T03:18:39;6.70;99.90
23507;DHT22;11930;53.076;18.250;2023-12-20T03:21:05;6.70;99.90
23507;DHT22;11930;53.076;18.250;2023-12-20T03:23:32;6.70;99.90
23507;DHT22;11930;53.076;18.250;2023-12-20T03:25:59;6.60;99.90
23507;DHT22;11930;53.076;18.250;2023-12-20T03:28:27;6.70;99.90
23507;DHT22;11930;53.076;18.250;2023-12-20T03:30:53;6.60;99.90
23507;DHT22;11930;53.076;18.250;2023-12-20T03:33:20;6.70;99.90
23507;DHT22;11930;53.076;18.250;2023-12-20T03:35:46;6.70;99.90
23507;DHT22;11930;53.076;18.250;2023-12-20T03:38:12;6.70;99.90
23507;DHT22;11930;53.076;18.250;2023-12-20T03:40:38;6.70;99.90
23507;DHT22;11930;53.076;18.250;2023-12-20T03:43:05;6.60;99.90
23507;DHT22;11930;53.076;18.250;2023-12-20T03:45:31;6.70;99.90
23507;DHT22;11930;53.076;18.250;2023-12-20T03:47:57;6.70;99.90
23507;DHT22;11930;53.076;18.250;2023-12-20T03:50:23;6.70;99.90
23507;DHT22;11930;53.076;18.250;2023-12-20T03:52:50;6.70;99.90
23507;DHT22;11930;53.076;18.250;2023-12-20T03:55:16;6.70;99.90
23507;DHT22;11930;53.076;18.250;2023-12-20T03:57:42;6.70;99.90
23507;DHT22;11930;53.076;18.250;2023-12-20T04:00:09;6.70;99.90
23507;DHT22;11930;53.076;18.250;2023-12-20T04:02:39;6.70;99.90
23507;DHT22;11930;53.076;18.250;2023-12-20T04:05:06;6.70;99.90
23507;DHT22;11930;53.076;18.250;2023-12-20T04:07:33;6.70;99.90
23507;DHT22;11930;53.076;18.250;2023-12-20T04:10:00;6.70;99.90
23507;DHT22;11930;53.076;18.250;2023-12-20T04:12:28;6.70;99.90
23507;DHT22;11930;53.076;18.250;2023-12-20T04:14:54;6.70;99.90
23507;DHT22;11930;53.076;18.250;2023-12-20T04:17:20;6.70;99.90
23507;DHT22;11930;53.076;18.250;2023-12-20T04:19:49;6.70;99.90
23507;DHT22;11930;53.076;18.250;2023-12-20T04:22:16;6.70;99.90
23507;DHT22;11930;53.076;18.250;2023-12-20T04:24:43;6.60;99.90
23507;DHT22;11930;53.076;18.250;2023-12-20T04:27:09;6.60;99.90
23507;DHT22;11930;53.076;18.250;2023-12-20T04:29:35;6.60;99.90
23507;DHT22;11930;53.076;18.250;2023-12-20T04:32:02;6.60;99.90
23507;DHT22;11930;53.076;18.250;2023-12-20T04:34:28;6.60;99.90
23507;DHT22;11930;53.076;18.250;2023-12-20T04:36:54;6.60;99.90
23507;DHT22;11930;53.076;18.250;2023-12-20T04:39:20;6.60;99.90
23507;DHT22;11930;53.076;18.250;2023-12-20T04:41:47;6.60;99.90
23507;DHT22;11930;53.076;18.250;2023-12-20T04:44:13;6.60;99.90
23507;DHT22;11930;53.076;18.250;2023-12-20T04:46:40;6.60;99.90
23507;DHT22;11930;53.076;18.250;2023-12-20T04:49:06;6.60;99.90
23507;DHT22;11930;53.076;18.250;2023-12-20T04:51:35;6.50;99.90
23507;DHT22;11930;53.076;18.250;2023-12-20T04:54:02;6.50;99.90
23507;DHT22;11930;53.076;18.250;2023-12-20T04:56:28;6.50;99.90
23507;DHT22;11930;53.076;18.250;2023-12-20T04:58:54;6.50;99.90
23507;DHT22;11930;53.076;18.250;2023-12-20T05:01:21;6.50;99.90
23507;DHT22;11930;53.076;18.250;2023-12-20T05:03:47;6.50;99.90
23507;DHT22;11930;53.076;18.250;2023-12-20T05:06:14;6.50;99.90
23507;DHT22;11930;53.076;18.250;2023-12-20T05:08:40;6.50;99.90
23507;DHT22;11930;53.076;18.250;2023-12-20T05:11:07;6.50;99.90
23507;DHT22;11930;53.076;18.250;2023-12-20T05:13:33;6.40;99.90
23507;DHT22;11930;53.076;18.250;2023-12-20T05:15:59;6.40;99.90
23507;DHT22;11930;53.076;18.250;2023-12-20T05:18:25;6.40;99.90
23507;DHT22;11930;53.076;18.250;2023-12-20T05:20:51;6.40;99.90
23507;DHT22;11930;53.076;18.250;2023-12-20T05:23:18;6.40;99.90
23507;DHT22;11930;53.076;18.250;2023-12-20T05:25:44;6.40;99.90
23507;DHT22;11930;53.076;18.250;2023-12-20T05:28:10;6.30;99.90
23507;DHT22;11930;53.076;18.250;2023-12-20T05:30:36;6.30;99.90
23507;DHT22;11930;53.076;18.250;2023-12-20T05:33:02;6.30;99.90
23507;DHT22;11930;53.076;18.250;2023-12-20T05:35:29;6.30;99.90
23507;DHT22;11930;53.076;18.250;2023-12-20T05:37:55;6.30;99.90
23507;DHT22;11930;53.076;18.250;2023-12-20T05:40:21;6.30;99.90
23507;DHT22;11930;53.076;18.250;2023-12-20T05:42:47;6.20;99.90
23507;DHT22;11930;53.076;18.250;2023-12-20T05:45:14;6.20;99.90
23507;DHT22;11930;53.076;18.250;2023-12-20T05:47:40;6.20;99.90
23507;DHT22;11930;53.076;18.250;2023-12-20T05:50:07;6.10;99.90
23507;DHT22;11930;53.076;18.250;2023-12-20T05:52:33;6.10;99.90
23507;DHT22;11930;53.076;18.250;2023-12-20T05:55:00;6.10;99.90
23507;DHT22;11930;53.076;18.250;2023-12-20T05:57:29;6.10;99.90
23507;DHT22;11930;53.076;18.250;2023-12-20T05:59:55;6.10;99.90
23507;DHT22;11930;53.076;18.250;2023-12-20T06:02:22;6.10;99.90
23507;DHT22;11930;53.076;18.250;2023-12-20T06:04:48;6.00;99.90
23507;DHT22;11930;53.076;18.250;2023-12-20T06:07:14;6.00;99.90
23507;DHT22;11930;53.076;18.250;2023-12-20T06:09:41;6.00;99.90
23507;DHT22;11930;53.076;18.250;2023-12-20T06:12:08;6.00;99.90
23507;DHT22;11930;53.076;18.250;2023-12-20T06:14:34;5.90;99.90
23507;DHT22;11930;53.076;18.250;2023-12-20T06:17:01;5.90;99.90
23507;DHT22;11930;53.076;18.250;2023-12-20T06:19:27;5.90;99.90
23507;DHT22;11930;53.076;18.250;2023-12-20T06:21:54;5.80;99.90
23507;DHT22;11930;53.076;18.250;2023-12-20T06:24:21;5.70;99.90
23507;DHT22;11930;53.076;18.250;2023-12-20T06:26:47;5.60;99.90
23507;DHT22;11930;53.076;18.250;2023-12-20T06:29:13;5.50;99.90
23507;DHT22;11930;53.076;18.250;2023-12-20T06:31:39;5.50;99.90
23507;DHT22;11930;53.076;18.250;2023-12-20T06:34:06;5.40;99.90
23507;DHT22;11930;53.076;18.250;2023-12-20T06:36:32;5.40;99.90
23507;DHT22;11930;53.076;18.250;2023-12-20T06:38:58;5.30;99.90
23507;DHT22;11930;53.076;18.250;2023-12-20T06:41:24;5.20;99.90
23507;DHT22;11930;53.076;18.250;2023-12-20T06:43:51;5.20;99.90
23507;DHT22;11930;53.076;18.250;2023-12-20T06:46:18;5.10;99.90
23507;DHT22;11930;53.076;18.250;2023-12-20T06:48:45;5.10;99.90
23507;DHT22;11930;53.076;18.250;2023-12-20T06:51:15;5.00;99.90
23507;DHT22;11930;53.076;18.250;2023-12-20T06:53:42;5.00;99.90
23507;DHT22;11930;53.076;18.250;2023-12-20T06:56:08;5.00;99.90
23507;DHT22;11930;53.076;18.250;2023-12-20T06:58:35;4.90;99.90
23507;DHT22;11930;53.076;18.250;2023-12-20T07:01:02;4.90;99.90
23507;DHT22;11930;53.076;18.250;2023-12-20T07:03:29;4.80;99.90
23507;DHT22;11930;53.076;18.250;2023-12-20T07:05:55;4.80;99.90
23507;DHT22;11930;53.076;18.250;2023-12-20T07:08:21;4.80;99.90
23507;DHT22;11930;53.076;18.250;2023-12-20T07:10:47;4.70;99.90
23507;DHT22;11930;53.076;18.250;2023-12-20T07:13:13;4.70;99.90
23507;DHT22;11930;53.076;18.250;2023-12-20T07:15:40;4.70;99.90
23507;DHT22;11930;53.076;18.250;2023-12-20T07:18:06;4.70;99.90
23507;DHT22;11930;53.076;18.250;2023-12-20T07:20:33;4.60;99.90
23507;DHT22;11930;53.076;18.250;2023-12-20T07:22:59;4.60;99.90
23507;DHT22;11930;53.076;18.250;2023-12-20T07:25:25;4.60;99.90
23507;DHT22;11930;53.076;18.250;2023-12-20T07:27:52;4.60;99.90
23507;DHT22;11930;53.076;18.250;2023-12-20T07:30:18;4.50;99.90
23507;DHT22;11930;53.076;18.250;2023-12-20T07:32:44;4.50;99.90
23507;DHT22;11930;53.076;18.250;2023-12-20T07:35:10;4.50;99.90
23507;DHT22;11930;53.076;18.250;2023-12-20T07:37:37;4.50;99.90
23507;DHT22;11930;53.076;18.250;2023-12-20T07:40:03;4.50;99.90
23507;DHT22;11930;53.076;18.250;2023-12-20T07:42:30;4.50;99.90
23507;DHT22;11930;53.076;18.250;2023-12-20T07:44:56;4.40;99.90
23507;DHT22;11930;53.076;18.250;2023-12-20T07:47:22;4.40;99.90
23507;DHT22;11930;53.076;18.250;2023-12-20T07:49:49;4.50;99.90
23507;DHT22;11930;53.076;18.250;2023-12-20T07:52:15;4.50;99.90
23507;DHT22;11930;53.076;18.250;2023-12-20T07:54:41;4.50;99.90
23507;DHT22;11930;53.076;18.250;2023-12-20T07:57:08;4.50;99.90
23507;DHT22;11930;53.076;18.250;2023-12-20T07:59:34;4.50;99.90
23507;DHT22;11930;53.076;18.250;2023-12-20T08:02:01;4.50;99.90
23507;DHT22;11930;53.076;18.250;2023-12-20T08:04:27;4.60;99.90
23507;DHT22;11930;53.076;18.250;2023-12-20T08:06:53;4.60;99.90
23507;DHT22;11930;53.076;18.250;2023-12-20T08:09:19;4.70;99.90
23507;DHT22;11930;53.076;18.250;2023-12-20T08:11:46;4.70;99.90
23507;DHT22;11930;53.076;18.250;2023-12-20T08:14:12;4.80;99.90
23507;DHT22;11930;53.076;18.250;2023-12-20T08:16:39;4.80;99.90
23507;DHT22;11930;53.076;18.250;2023-12-20T08:19:05;4.80;99.90
23507;DHT22;11930;53.076;18.250;2023-12-20T08:21:32;4.90;99.90
23507;DHT22;11930;53.076;18.250;2023-12-20T08:23:58;5.00;99.90
23507;DHT22;11930;53.076;18.250;2023-12-20T08:26:27;5.10;99.90
23507;DHT22;11930;53.076;18.250;2023-12-20T08:28:53;5.20;99.90
23507;DHT22;11930;53.076;18.250;2023-12-20T08:31:19;5.40;99.90
23507;DHT22;11930;53.076;18.250;2023-12-20T08:33:48;5.60;99.90
23507;DHT22;11930;53.076;18.250;2023-12-20T08:36:15;5.80;99.90
23507;DHT22;11930;53.076;18.250;2023-12-20T08:38:43;5.80;99.90
23507;DHT22;11930;53.076;18.250;2023-12-20T08:41:10;6.00;99.90
23507;DHT22;11930;53.076;18.250;2023-12-20T08:43:36;6.20;99.90
23507;DHT22;11930;53.076;18.250;2023-12-20T08:46:02;6.40;99.90
23507;DHT22;11930;53.076;18.250;2023-12-20T08:48:29;6.70;99.90
23507;DHT22;11930;53.076;18.250;2023-12-20T08:50:55;7.10;99.90
23507;DHT22;11930;53.076;18.250;2023-12-20T08:53:21;7.40;99.90
23507;DHT22;11930;53.076;18.250;2023-12-20T08:55:48;7.60;99.90
23507;DHT22;11930;53.076;18.250;2023-12-20T08:58:14;7.60;99.90
23507;DHT22;11930;53.076;18.250;2023-12-20T09:00:40;7.50;99.90
23507;DHT22;11930;53.076;18.250;2023-12-20T09:03:06;7.40;99.90
23507;DHT22;11930;53.076;18.250;2023-12-20T09:05:33;7.20;99.90
23507;DHT22;11930;53.076;18.250;2023-12-20T09:07:59;7.00;99.90
23507;DHT22;11930;53.076;18.250;2023-12-20T09:10:26;6.70;99.90
23507;DHT22;11930;53.076;18.250;2023-12-20T09:12:52;6.50;99.90
23507;DHT22;11930;53.076;18.250;2023-12-20T09:15:25;6.30;99.90
23507;DHT22;11930;53.076;18.250;2023-12-20T09:17:52;6.10;99.90
23507;DHT22;11930;53.076;18.250;2023-12-20T09:20:19;6.00;99.90
23507;DHT22;11930;53.076;18.250;2023-12-20T09:22:45;5.90;99.90
23507;DHT22;11930;53.076;18.250;2023-12-20T09:25:12;5.80;99.90
23507;DHT22;11930;53.076;18.250;2023-12-20T09:27:39;5.70;99.90
23507;DHT22;11930;53.076;18.250;2023-12-20T09:30:07;5.60;99.90
23507;DHT22;11930;53.076;18.250;2023-12-20T09:32:33;5.70;99.90
23507;DHT22;11930;53.076;18.250;2023-12-20T09:35:00;5.60;99.90
23507;DHT22;11930;53.076;18.250;2023-12-20T09:37:27;5.70;99.90
23507;DHT22;11930;53.076;18.250;2023-12-20T09:39:54;5.80;99.90
23507;DHT22;11930;53.076;18.250;2023-12-20T09:45:20;6.30;99.90
23507;DHT22;11930;53.076;18.250;2023-12-20T09:47:49;6.80;99.90
23507;DHT22;11930;53.076;18.250;2023-12-20T09:50:17;7.30;99.90
23507;DHT22;11930;53.076;18.250;2023-12-20T09:52:45;7.70;99.90
23507;DHT22;11930;53.076;18.250;2023-12-20T09:55:12;7.90;99.90
23507;DHT22;11930;53.076;18.250;2023-12-20T09:57:39;8.20;99.90
23507;DHT22;11930;53.076;18.250;2023-12-20T10:00:06;8.40;99.90
23507;DHT22;11930;53.076;18.250;2023-12-20T10:05:36;8.50;99.90
23507;DHT22;11930;53.076;18.250;2023-12-20T10:08:02;8.40;99.90
23507;DHT22;11930;53.076;18.250;2023-12-20T10:10:29;8.20;99.90
23507;DHT22;11930;53.076;18.250;2023-12-20T10:13:06;7.90;99.90
23507;DHT22;11930;53.076;18.250;2023-12-20T10:15:34;7.70;99.90
23507;DHT22;11930;53.076;18.250;2023-12-20T10:18:03;7.50;99.90
23507;DHT22;11930;53.076;18.250;2023-12-20T10:20:30;7.40;99.90
23507;DHT22;11930;53.076;18.250;2023-12-20T10:22:58;7.20;99.90
23507;DHT22;11930;53.076;18.250;2023-12-20T10:25:25;7.00;99.90
23507;DHT22;11930;53.076;18.250;2023-12-20T10:28:12;6.90;99.90
23507;DHT22;11930;53.076;18.250;2023-12-20T10:30:40;6.90;99.90
23507;DHT22;11930;53.076;18.250;2023-12-20T10:33:07;6.90;99.90
23507;DHT22;11930;53.076;18.250;2023-12-20T10:35:38;7.00;99.90
23507;DHT22;11930;53.076;18.250;2023-12-20T10:38:05;7.00;99.90
23507;DHT22;11930;53.076;18.250;2023-12-20T10:40:34;7.00;99.90
23507;DHT22;11930;53.076;18.250;2023-12-20T10:43:03;7.10;99.90
23507;DHT22;11930;53.076;18.250;2023-12-20T10:45:29;7.10;99.90
23507;DHT22;11930;53.076;18.250;2023-12-20T10:47:56;7.10;99.90
23507;DHT22;11930;53.076;18.250;2023-12-20T10:50:27;7.00;99.90
23507;DHT22;11930;53.076;18.250;2023-12-20T10:52:54;7.00;99.90
23507;DHT22;11930;53.076;18.250;2023-12-20T10:55:25;6.90;99.90
23507;DHT22;11930;53.076;18.250;2023-12-20T10:57:52;6.80;99.90
23507;DHT22;11930;53.076;18.250;2023-12-20T11:00:20;6.80;99.90
23507;DHT22;11930;53.076;18.250;2023-12-20T11:02:49;6.70;99.90
23507;DHT22;11930;53.076;18.250;2023-12-20T11:05:22;6.60;99.90
23507;DHT22;11930;53.076;18.250;2023-12-20T11:07:58;6.60;99.90
23507;DHT22;11930;53.076;18.250;2023-12-20T11:10:35;6.60;99.90
23507;DHT22;11930;53.076;18.250;2023-12-20T11:13:11;6.50;99.90
23507;DHT22;11930;53.076;18.250;2023-12-20T11:15:38;6.50;99.90
23507;DHT22;11930;53.076;18.250;2023-12-20T11:18:05;6.50;99.90
23507;DHT22;11930;53.076;18.250;2023-12-20T11:20:39;6.50;99.90
23507;DHT22;11930;53.076;18.250;2023-12-20T11:23:06;6.50;99.90
23507;DHT22;11930;53.076;18.250;2023-12-20T11:25:53;6.50;99.90
23507;DHT22;11930;53.076;18.250;2023-12-20T11:28:24;6.40;99.90
23507;DHT22;11930;53.076;18.250;2023-12-20T11:30:53;6.40;99.90
23507;DHT22;11930;53.076;18.250;2023-12-20T11:33:23;6.40;99.90
23507;DHT22;11930;53.076;18.250;2023-12-20T11:35:50;6.40;99.90
23507;DHT22;11930;53.076;18.250;2023-12-20T11:38:19;6.40;99.90
23507;DHT22;11930;53.076;18.250;2023-12-20T11:40:48;6.30;99.90
23507;DHT22;11930;53.076;18.250;2023-12-20T11:43:32;6.30;99.90
23507;DHT22;11930;53.076;18.250;2023-12-20T11:48:32;6.20;99.90
23507;DHT22;11930;53.076;18.250;2023-12-20T11:50:59;6.20;99.90
23507;DHT22;11930;53.076;18.250;2023-12-20T11:53:25;6.20;99.90
23507;DHT22;11930;53.076;18.250;2023-12-20T11:55:51;6.20;99.90
23507;DHT22;11930;53.076;18.250;2023-12-20T11:58:17;6.30;99.90
23507;DHT22;11930;53.076;18.250;2023-12-20T12:00:43;6.30;99.90
23507;DHT22;11930;53.076;18.250;2023-12-20T12:03:10;6.30;99.90
23507;DHT22;11930;53.076;18.250;2023-12-20T12:05:36;6.30;99.90
23507;DHT22;11930;53.076;18.250;2023-12-20T12:08:02;6.40;99.90
23507;DHT22;11930;53.076;18.250;2023-12-20T12:10:29;6.30;99.90
23507;DHT22;11930;53.076;18.250;2023-12-20T12:12:56;6.30;99.90
23507;DHT22;11930;53.076;18.250;2023-12-20T12:15:23;6.30;99.90
23507;DHT22;11930;53.076;18.250;2023-12-20T12:17:56;6.30;99.90
23507;DHT22;11930;53.076;18.250;2023-12-20T12:20:23;6.30;99.90
23507;DHT22;11930;53.076;18.250;2023-12-20T12:22:59;6.20;99.90
23507;DHT22;11930;53.076;18.250;2023-12-20T12:25:26;6.10;99.90
23507;DHT22;11930;53.076;18.250;2023-12-20T12:27:53;6.10;99.90
23507;DHT22;11930;53.076;18.250;2023-12-20T12:30:19;6.10;99.90
23507;DHT22;11930;53.076;18.250;2023-12-20T12:32:45;6.10;99.90
23507;DHT22;11930;53.076;18.250;2023-12-20T12:35:11;6.00;99.90
23507;DHT22;11930;53.076;18.250;2023-12-20T12:37:38;6.00;99.90
23507;DHT22;11930;53.076;18.250;2023-12-20T12:40:11;6.00;99.90
23507;DHT22;11930;53.076;18.250;2023-12-20T12:42:37;6.00;99.90
23507;DHT22;11930;53.076;18.250;2023-12-20T12:45:04;5.90;99.90
23507;DHT22;11930;53.076;18.250;2023-12-20T12:47:31;5.90;99.90
23507;DHT22;11930;53.076;18.250;2023-12-20T12:49:57;5.90;99.90
23507;DHT22;11930;53.076;18.250;2023-12-20T12:52:24;5.90;99.90
23507;DHT22;11930;53.076;18.250;2023-12-20T12:54:50;5.90;99.90
23507;DHT22;11930;53.076;18.250;2023-12-20T12:57:16;5.80;99.90
23507;DHT22;11930;53.076;18.250;2023-12-20T12:59:43;5.80;99.90
23507;DHT22;11930;53.076;18.250;2023-12-20T13:02:12;5.80;99.90
23507;DHT22;11930;53.076;18.250;2023-12-20T13:04:40;5.80;99.90
23507;DHT22;11930;53.076;18.250;2023-12-20T13:07:07;5.80;99.90
23507;DHT22;11930;53.076;18.250;2023-12-20T13:09:33;5.80;99.90
23507;DHT22;11930;53.076;18.250;2023-12-20T13:12:00;5.80;99.90
23507;DHT22;11930;53.076;18.250;2023-12-20T13:14:31;5.70;99.90
23507;DHT22;11930;53.076;18.250;2023-12-20T13:16:58;5.70;99.90
23507;DHT22;11930;53.076;18.250;2023-12-20T13:19:25;5.70;99.90
23507;DHT22;11930;53.076;18.250;2023-12-20T13:21:51;5.70;99.90
23507;DHT22;11930;53.076;18.250;2023-12-20T13:24:17;5.60;99.90
23507;DHT22;11930;53.076;18.250;2023-12-20T13:26:44;5.60;99.90
23507;DHT22;11930;53.076;18.250;2023-12-20T13:29:10;5.60;99.90
23507;DHT22;11930;53.076;18.250;2023-12-20T13:31:37;5.60;99.90
23507;DHT22;11930;53.076;18.250;2023-12-20T13:34:04;5.60;99.90
23507;DHT22;11930;53.076;18.250;2023-12-20T13:36:30;5.50;99.90
23507;DHT22;11930;53.076;18.250;2023-12-20T13:38:57;5.50;99.90
23507;DHT22;11930;53.076;18.250;2023-12-20T13:41:23;5.50;99.90
23507;DHT22;11930;53.076;18.250;2023-12-20T13:43:49;5.50;99.90
23507;DHT22;11930;53.076;18.250;2023-12-20T13:46:15;5.50;99.90
23507;DHT22;11930;53.076;18.250;2023-12-20T13:48:43;5.50;99.90
23507;DHT22;11930;53.076;18.250;2023-12-20T13:51:09;5.50;99.90
23507;DHT22;11930;53.076;18.250;2023-12-20T13:53:35;5.50;99.90
23507;DHT22;11930;53.076;18.250;2023-12-20T13:56:01;5.50;99.90
23507;DHT22;11930;53.076;18.250;2023-12-20T13:58:28;5.50;99.90
23507;DHT22;11930;53.076;18.250;2023-12-20T14:00:54;5.50;99.90
23507;DHT22;11930;53.076;18.250;2023-12-20T14:03:20;5.40;99.90
23507;DHT22;11930;53.076;18.250;2023-12-20T14:05:47;5.40;99.90
23507;DHT22;11930;53.076;18.250;2023-12-20T14:08:13;5.40;99.90
23507;DHT22;11930;53.076;18.250;2023-12-20T14:10:39;5.40;99.90
23507;DHT22;11930;53.076;18.250;2023-12-20T14:13:06;5.50;99.90
23507;DHT22;11930;53.076;18.250;2023-12-20T14:15:32;5.50;99.90
23507;DHT22;11930;53.076;18.250;2023-12-20T14:18:06;5.40;99.90
23507;DHT22;11930;53.076;18.250;2023-12-20T14:20:34;5.40;99.90
23507;DHT22;11930;53.076;18.250;2023-12-20T14:23:03;5.40;99.90
23507;DHT22;11930;53.076;18.250;2023-12-20T14:25:29;5.50;99.90
23507;DHT22;11930;53.076;18.250;2023-12-20T14:27:57;5.50;99.90
23507;DHT22;11930;53.076;18.250;2023-12-20T14:30:24;5.40;99.90
23507;DHT22;11930;53.076;18.250;2023-12-20T14:32:50;5.50;99.90
23507;DHT22;11930;53.076;18.250;2023-12-20T14:35:17;5.40;99.90
23507;DHT22;11930;53.076;18.250;2023-12-20T14:37:43;5.40;99.90
23507;DHT22;11930;53.076;18.250;2023-12-20T14:40:11;5.40;99.90
23507;DHT22;11930;53.076;18.250;2023-12-20T14:42:44;5.40;99.90
23507;DHT22;11930;53.076;18.250;2023-12-20T14:45:12;5.40;99.90
23507;DHT22;11930;53.076;18.250;2023-12-20T14:47:40;5.40;99.90
23507;DHT22;11930;53.076;18.250;2023-12-20T14:50:08;5.50;99.90
23507;DHT22;11930;53.076;18.250;2023-12-20T14:52:34;5.50;99.90
23507;DHT22;11930;53.076;18.250;2023-12-20T14:55:01;5.50;99.90
23507;DHT22;11930;53.076;18.250;2023-12-20T14:57:28;5.50;99.90
23507;DHT22;11930;53.076;18.250;2023-12-20T14:59:56;5.50;99.90
23507;DHT22;11930;53.076;18.250;2023-12-20T15:02:22;5.50;99.90
23507;DHT22;11930;53.076;18.250;2023-12-20T15:04:48;5.50;99.90
23507;DHT22;11930;53.076;18.250;2023-12-20T15:07:15;5.50;99.90
23507;DHT22;11930;53.076;18.250;2023-12-20T15:09:43;5.50;99.90
23507;DHT22;11930;53.076;18.250;2023-12-20T15:12:13;5.50;99.90
23507;DHT22;11930;53.076;18.250;2023-12-20T15:14:40;5.50;99.90
23507;DHT22;11930;53.076;18.250;2023-12-20T15:17:06;5.50;99.90
23507;DHT22;11930;53.076;18.250;2023-12-20T15:19:32;5.50;99.90
23507;DHT22;11930;53.076;18.250;2023-12-20T15:21:59;5.50;99.90
23507;DHT22;11930;53.076;18.250;2023-12-20T15:24:26;5.60;99.90
23507;DHT22;11930;53.076;18.250;2023-12-20T15:27:05;5.50;99.90
23507;DHT22;11930;53.076;18.250;2023-12-20T15:29:31;5.50;99.90
23507;DHT22;11930;53.076;18.250;2023-12-20T15:31:58;5.60;99.90
23507;DHT22;11930;53.076;18.250;2023-12-20T15:34:24;5.60;99.90
23507;DHT22;11930;53.076;18.250;2023-12-20T15:36:51;5.60;99.90